Woodbury, Minnesota
Current Conditions -  °F | °C
As of 11:53 PM on Sunday 21 Dec 2014 (Local Time) from KSTP Reporting Station
Haze Haze  
Wind Chill: 30°   Ceiling: 1000
Heat Index: 38°   Visibility: 5mi
Dew Point: 36°   Wind: 13mph
Humidity: 93%   Direction: 150°SSE
Pressure: 29.74"   Gusts: NA
Location:  44.92°N, 92.94°W
Report Text: KSTP 220553Z AUTO 15011KT 5SM BR OVC010 03/02 A2974 RMK AO2 SLP076 60006 T00330022 10033 20022 400331006 58003
Loading
Personal Weather Stations






























Interactive Weather Map New forecast layout! Learn more

10-Day Weather Forecast

Advertisements
Track Severe Weather on mobile